createdAt,value
2022-08-19T00:01:39.661Z,14.07
2022-08-19T00:04:09.322Z,15.02
2022-08-19T00:06:37.574Z,13.93
2022-08-19T00:09:06.297Z,15.13
2022-08-19T00:11:33.191Z,13.48
2022-08-19T00:13:59.859Z,13.98
2022-08-19T00:16:27.169Z,13.60
2022-08-19T00:18:56.080Z,14.63
2022-08-19T00:21:23.887Z,13.45
2022-08-19T00:23:50.697Z,43.40
2022-08-19T00:26:17.186Z,14.23
2022-08-19T00:28:43.678Z,2.60
2022-08-19T00:31:10.414Z,13.68
2022-08-19T00:33:37.743Z,13.98
2022-08-19T00:36:07.647Z,13.82
2022-08-19T00:38:37.306Z,13.88
2022-08-19T00:41:06.039Z,14.07
2022-08-19T00:43:32.884Z,13.60
2022-08-19T00:45:59.377Z,14.32
2022-08-19T00:48:25.877Z,13.57
2022-08-19T00:50:54.382Z,13.73
2022-08-19T00:53:24.145Z,13.93
2022-08-19T00:55:52.410Z,13.13
2022-08-19T00:58:22.314Z,13.75
2022-08-19T01:00:49.147Z,13.32
2022-08-19T01:03:19.602Z,13.75
2022-08-19T01:05:47.008Z,13.25
2022-08-19T01:08:15.109Z,13.27
2022-08-19T01:10:48.959Z,12.77
2022-08-19T01:13:20.825Z,12.02
2022-08-19T01:15:54.503Z,12.13
2022-08-19T01:18:21.773Z,11.38
2022-08-19T01:20:48.981Z,11.30
2022-08-19T01:23:16.117Z,10.50
2022-08-19T01:25:46.680Z,11.43
2022-08-19T01:28:39.942Z,11.13
2022-08-19T01:31:08.487Z,10.80
2022-08-19T01:33:35.186Z,11.43
2022-08-19T01:36:16.066Z,10.85
2022-08-19T01:38:44.375Z,11.20
2022-08-19T01:41:12.304Z,10.85
2022-08-19T01:43:39.508Z,12.02
2022-08-19T01:46:25.961Z,12.20
2022-08-19T01:48:52.408Z,12.40
2022-08-19T01:51:18.930Z,15.23
2022-08-19T01:53:48.987Z,14.75
2022-08-19T01:56:15.755Z,15.23
2022-08-19T01:58:47.324Z,13.68
2022-08-19T02:01:16.681Z,15.25
2022-08-19T02:03:43.281Z,15.57
2022-08-19T02:06:10.050Z,15.05
2022-08-19T02:08:39.013Z,14.93
2022-08-19T02:11:06.509Z,14.40
2022-08-19T02:13:33.728Z,15.50
2022-08-19T02:16:00.583Z,15.15
2022-08-19T02:18:30.898Z,14.50
2022-08-19T02:20:57.377Z,13.43
2022-08-19T02:23:23.925Z,13.40
2022-08-19T02:25:52.360Z,13.88
2022-08-19T02:28:19.221Z,13.30
2022-08-19T02:30:46.561Z,13.40
2022-08-19T02:33:13.002Z,14.27
2022-08-19T02:35:45.338Z,14.40
2022-08-19T02:38:26.879Z,14.00
2022-08-19T02:41:01.965Z,14.30
2022-08-19T02:43:33.722Z,13.05
2022-08-19T02:46:01.342Z,14.48
2022-08-19T02:48:27.829Z,13.80
2022-08-19T02:50:57.182Z,13.25
2022-08-19T02:53:25.981Z,14.43
2022-08-19T02:55:52.901Z,13.55
2022-08-19T02:58:20.136Z,13.88
2022-08-19T03:00:50.138Z,14.00
2022-08-19T03:03:17.915Z,13.65
2022-08-19T03:05:48.101Z,12.75
2022-08-19T03:08:22.861Z,12.75
2022-08-19T03:10:49.641Z,13.00
2022-08-19T03:13:18.856Z,13.77
2022-08-19T03:15:47.380Z,13.15
2022-08-19T03:18:15.381Z,13.88
2022-08-19T03:20:50.536Z,14.43
2022-08-19T03:23:18.006Z,14.25
2022-08-19T03:26:03.034Z,14.35
2022-08-19T03:28:35.845Z,14.07
2022-08-19T03:31:41.850Z,13.93
2022-08-19T03:33:55.366Z,12.88
2022-08-19T03:36:25.553Z,14.27
2022-08-19T03:38:57.517Z,13.35
2022-08-19T03:41:44.367Z,12.95
2022-08-19T03:44:18.360Z,13.43
2022-08-19T03:46:50.032Z,13.07
2022-08-19T03:49:18.310Z,12.68
2022-08-19T03:51:45.633Z,13.18
2022-08-19T03:54:14.131Z,13.38
2022-08-19T03:56:42.165Z,13.15
2022-08-19T03:59:14.597Z,12.55
2022-08-19T04:01:41.190Z,13.90
2022-08-19T04:04:07.688Z,12.98
2022-08-19T04:06:39.477Z,13.05
2022-08-19T04:09:09.283Z,12.70
2022-08-19T04:11:43.411Z,12.90
2022-08-19T04:14:13.239Z,12.63
2022-08-19T04:16:39.699Z,13.13
2022-08-19T04:19:07.466Z,13.48
2022-08-19T04:21:34.529Z,13.05
2022-08-19T04:24:01.339Z,13.15
2022-08-19T04:26:35.533Z,13.38
2022-08-19T04:29:09.224Z,13.73
2022-08-19T04:31:38.490Z,13.07
2022-08-19T04:34:07.723Z,12.77
2022-08-19T04:36:36.665Z,12.45
2022-08-19T04:39:14.062Z,12.48
2022-08-19T04:41:59.128Z,12.90
2022-08-19T04:44:26.539Z,12.35
2022-08-19T04:46:53.619Z,13.43
2022-08-19T04:49:23.090Z,12.98
2022-08-19T04:51:50.732Z,13.80
2022-08-19T04:54:25.879Z,13.05
2022-08-19T04:57:07.002Z,13.25
2022-08-19T04:59:34.506Z,13.50
2022-08-19T05:02:01.001Z,13.63
2022-08-19T05:04:32.816Z,14.23
2022-08-19T05:07:00.722Z,13.90
2022-08-19T05:09:28.132Z,14.43
2022-08-19T05:11:54.932Z,13.75
2022-08-19T05:14:21.969Z,12.70
2022-08-19T05:16:48.501Z,13.98
2022-08-19T05:19:33.725Z,14.95
2022-08-19T05:22:19.969Z,13.40
2022-08-19T05:25:09.325Z,14.20
2022-08-19T05:27:33.750Z,15.10
2022-08-19T05:30:00.448Z,14.10
2022-08-19T05:32:27.183Z,14.55
2022-08-19T05:34:53.689Z,14.07
2022-08-19T05:37:20.261Z,14.40
2022-08-19T05:39:51.307Z,14.77
2022-08-19T05:42:18.036Z,14.18
2022-08-19T05:44:45.452Z,12.88
2022-08-19T05:47:13.617Z,15.10
2022-08-19T05:49:40.107Z,14.35
2022-08-19T05:52:09.308Z,15.27
2022-08-19T05:54:40.970Z,17.23
2022-08-19T05:57:08.005Z,15.40
2022-08-19T05:59:39.197Z,16.17
2022-08-19T06:02:07.490Z,15.00
2022-08-19T06:04:34.660Z,14.23
2022-08-19T06:07:12.843Z,14.45
2022-08-19T06:09:39.844Z,15.80
2022-08-19T06:12:06.676Z,15.02
2022-08-19T06:14:35.598Z,14.40
2022-08-19T06:17:07.520Z,14.05
2022-08-19T06:19:34.213Z,14.93
2022-08-19T06:22:01.733Z,15.38
2022-08-19T06:24:30.326Z,15.23
2022-08-19T06:27:00.905Z,15.02
2022-08-19T06:29:30.292Z,15.25
2022-08-19T06:31:59.338Z,15.13
2022-08-19T06:34:28.218Z,14.65
2022-08-19T06:36:55.906Z,14.73
2022-08-19T06:39:28.018Z,14.63
2022-08-19T06:41:58.937Z,14.95
2022-08-19T06:44:28.088Z,14.00
2022-08-19T06:46:57.286Z,14.63
2022-08-19T06:49:24.349Z,14.55
2022-08-19T06:51:51.757Z,14.40
2022-08-19T06:54:20.075Z,13.40
2022-08-19T06:56:47.136Z,14.10
2022-08-19T06:59:17.579Z,13.65
2022-08-19T07:01:54.689Z,15.23
2022-08-19T07:04:23.657Z,14.05
2022-08-19T07:06:55.315Z,13.70
2022-08-19T07:09:22.629Z,13.32
2022-08-19T07:11:53.226Z,13.30
2022-08-19T07:14:22.967Z,12.57
2022-08-19T07:16:51.166Z,12.40
2022-08-19T07:19:19.247Z,12.18
2022-08-19T07:21:50.891Z,11.02
2022-08-19T07:24:17.886Z,11.40
2022-08-19T07:26:45.033Z,11.63
2022-08-19T07:29:12.134Z,11.40
2022-08-19T07:31:40.679Z,10.90
2022-08-19T07:34:12.447Z,10.85
2022-08-19T07:36:41.547Z,9.93
2022-08-19T07:39:17.690Z,11.55
2022-08-19T07:41:45.106Z,11.00
2022-08-19T07:44:11.874Z,10.50
2022-08-19T07:46:41.345Z,10.63
2022-08-19T07:49:08.594Z,9.45
2022-08-19T07:51:36.992Z,10.40
2022-08-19T07:54:04.440Z,11.25
2022-08-19T07:56:30.981Z,9.82
2022-08-19T07:58:57.483Z,11.30
2022-08-19T08:01:26.612Z,11.98
2022-08-19T08:04:12.666Z,11.68
2022-08-19T08:06:57.642Z,11.32
2022-08-19T08:09:30.473Z,11.15
2022-08-19T08:12:05.090Z,10.85
2022-08-19T08:14:43.989Z,10.73
2022-08-19T08:17:11.349Z,9.55
2022-08-19T08:19:38.830Z,10.68
2022-08-19T08:22:07.157Z,10.05
2022-08-19T08:24:34.646Z,10.27
2022-08-19T08:27:02.208Z,10.40
2022-08-19T08:29:34.970Z,11.10
2022-08-19T08:32:02.394Z,12.52
2022-08-19T08:34:28.861Z,9.88
2022-08-19T08:36:55.350Z,11.20
2022-08-19T08:39:22.483Z,10.80
2022-08-19T08:41:56.297Z,11.02
2022-08-19T08:45:01.543Z,9.13
2022-08-19T08:47:33.594Z,11.00
2022-08-19T08:50:07.752Z,14.50
2022-08-19T08:52:37.861Z,10.82
2022-08-19T08:55:10.669Z,10.07
2022-08-19T08:57:55.461Z,9.80
2022-08-19T09:00:32.015Z,10.05
2022-08-19T09:03:00.705Z,10.13
2022-08-19T09:05:41.433Z,10.27
2022-08-19T09:08:38.816Z,10.63
2022-08-19T09:11:10.001Z,10.30
2022-08-19T09:13:43.162Z,8.70
2022-08-19T09:16:19.260Z,10.38
2022-08-19T09:19:01.845Z,10.05
2022-08-19T09:21:33.012Z,10.18
2022-08-19T09:24:03.400Z,11.02
2022-08-19T09:26:47.141Z,10.38
2022-08-19T09:29:14.976Z,9.65
2022-08-19T09:31:41.842Z,10.55
2022-08-19T09:34:09.299Z,9.80
2022-08-19T09:36:48.180Z,22.08
2022-08-19T09:39:16.254Z,9.32
2022-08-19T09:41:47.376Z,7.93
2022-08-19T09:44:15.531Z,8.15
2022-08-19T09:46:42.023Z,8.20
2022-08-19T09:49:08.516Z,8.32
2022-08-19T09:51:35.196Z,9.18
2022-08-19T09:54:05.321Z,8.02
2022-08-19T09:56:32.552Z,10.00
2022-08-19T09:59:01.612Z,7.38
2022-08-19T10:01:29.805Z,7.80
2022-08-19T10:03:57.801Z,7.15
2022-08-19T10:06:45.205Z,8.48
2022-08-19T10:09:13.064Z,9.38
2022-08-19T10:11:52.531Z,7.38
2022-08-19T10:14:23.357Z,7.47
2022-08-19T10:16:52.379Z,10.10
2022-08-19T10:19:25.958Z,11.15
2022-08-19T10:21:53.390Z,9.60
2022-08-19T10:24:21.618Z,8.00
2022-08-19T10:26:57.082Z,7.78
2022-08-19T10:29:32.897Z,7.22
2022-08-19T10:32:02.630Z,6.55
2022-08-19T10:34:30.645Z,6.10
2022-08-19T10:37:01.232Z,6.05
2022-08-19T10:39:30.846Z,6.03
2022-08-19T10:41:58.150Z,6.20
2022-08-19T10:44:24.994Z,5.97
2022-08-19T10:46:59.832Z,7.00
2022-08-19T10:49:26.464Z,6.97
2022-08-19T10:52:33.215Z,6.10
2022-08-19T10:55:23.321Z,6.28
2022-08-19T10:58:02.181Z,5.47
2022-08-19T11:00:30.017Z,5.35
2022-08-19T11:02:56.753Z,5.95
2022-08-19T11:05:24.158Z,5.75
2022-08-19T11:07:52.542Z,5.72
2022-08-19T11:10:21.794Z,5.35
2022-08-19T11:12:49.346Z,6.65
2022-08-19T11:15:16.598Z,5.68
2022-08-19T11:17:44.554Z,6.55
2022-08-19T11:20:13.287Z,6.90
2022-08-19T11:22:41.887Z,7.82
2022-08-19T11:25:10.523Z,6.60
2022-08-19T11:27:44.503Z,6.75
2022-08-19T11:30:13.532Z,7.35
2022-08-19T11:32:45.661Z,6.88
2022-08-19T11:35:13.768Z,6.82
2022-08-19T11:37:40.458Z,7.28
2022-08-19T11:40:07.988Z,8.32
2022-08-19T11:42:53.289Z,8.32
2022-08-19T11:45:19.760Z,8.18
2022-08-19T11:47:47.158Z,8.02
2022-08-19T11:50:14.091Z,8.38
2022-08-19T11:52:40.778Z,8.68
2022-08-19T11:55:08.176Z,8.57
2022-08-19T11:57:34.709Z,8.80
2022-08-19T12:00:02.463Z,9.55
2022-08-19T12:02:28.941Z,10.30
2022-08-19T12:04:55.469Z,9.55
2022-08-19T12:07:21.983Z,10.40
2022-08-19T12:09:48.557Z,9.77
2022-08-19T12:12:15.719Z,9.10
2022-08-19T12:14:42.169Z,9.10
2022-08-19T12:17:09.971Z,9.00
2022-08-19T12:19:38.000Z,8.63
2022-08-19T12:22:04.579Z,7.45
2022-08-19T12:24:32.569Z,9.15
2022-08-19T12:27:03.156Z,8.43
2022-08-19T12:29:30.636Z,8.15
2022-08-19T12:32:02.094Z,9.63
2022-08-19T12:34:33.261Z,9.13
2022-08-19T12:37:05.540Z,8.38
2022-08-19T12:39:44.259Z,9.15
2022-08-19T12:42:12.620Z,8.50
2022-08-19T12:44:41.701Z,8.40
2022-08-19T12:47:10.840Z,8.05
2022-08-19T12:49:52.077Z,8.68
2022-08-19T12:52:23.034Z,8.48
2022-08-19T12:54:54.050Z,9.07
2022-08-19T12:57:22.191Z,7.88
2022-08-19T12:59:54.481Z,8.55
2022-08-19T13:02:21.195Z,8.23
2022-08-19T13:04:48.130Z,8.20
2022-08-19T13:07:15.453Z,7.88
2022-08-19T13:09:43.398Z,8.02
2022-08-19T13:12:13.847Z,7.28
2022-08-19T13:14:41.233Z,8.00
2022-08-19T13:17:08.136Z,6.93
2022-08-19T13:19:37.505Z,6.63
2022-08-19T13:22:03.933Z,6.85
2022-08-19T13:24:32.749Z,6.72
2022-08-19T13:27:01.609Z,6.80
2022-08-19T13:29:46.784Z,6.40
2022-08-19T13:32:32.000Z,6.53
2022-08-19T13:34:58.582Z,6.30
2022-08-19T13:37:41.921Z,5.95
2022-08-19T13:40:18.100Z,5.03
2022-08-19T13:42:48.028Z,4.72
2022-08-19T13:45:16.510Z,5.25
2022-08-19T13:47:45.794Z,5.30
2022-08-19T13:50:14.340Z,4.70
2022-08-19T13:52:41.525Z,4.88
2022-08-19T13:55:09.361Z,4.80
2022-08-19T13:57:36.912Z,4.35
2022-08-19T14:00:04.960Z,4.30
2022-08-19T14:02:31.448Z,4.43
2022-08-19T14:04:59.342Z,4.10
2022-08-19T14:07:26.221Z,3.75
2022-08-19T14:09:52.684Z,3.83
2022-08-19T14:12:28.408Z,4.35
2022-08-19T14:14:55.384Z,3.70
2022-08-19T14:17:22.353Z,3.63
2022-08-19T14:19:49.304Z,3.38
2022-08-19T14:22:15.831Z,3.55
2022-08-19T14:24:49.158Z,3.90
2022-08-19T14:27:15.738Z,3.20
2022-08-19T14:29:42.198Z,3.17
2022-08-19T14:32:08.694Z,2.70
2022-08-19T14:34:39.470Z,3.05
2022-08-19T14:37:06.946Z,3.40
2022-08-19T14:39:33.675Z,3.08
2022-08-19T14:42:00.149Z,3.90
2022-08-19T14:44:27.213Z,3.70
2022-08-19T14:46:54.558Z,3.25
2022-08-19T14:49:21.154Z,3.83
2022-08-19T14:51:58.650Z,3.28
2022-08-19T14:54:25.267Z,4.13
2022-08-19T14:56:53.746Z,4.15
2022-08-19T14:59:20.691Z,5.55
2022-08-19T15:01:47.218Z,4.85
2022-08-19T15:04:13.757Z,5.22
2022-08-19T15:06:40.788Z,5.30
2022-08-19T15:09:07.249Z,4.10
2022-08-19T15:11:33.717Z,5.10
2022-08-19T15:14:00.866Z,5.03
2022-08-19T15:16:27.894Z,5.20
2022-08-19T15:18:59.826Z,4.53
2022-08-19T15:21:27.760Z,4.75
2022-08-19T15:23:55.917Z,5.10
2022-08-19T15:26:22.528Z,4.80
2022-08-19T15:28:49.352Z,4.70
2022-08-19T15:31:25.059Z,4.57
2022-08-19T15:33:58.120Z,7.30
2022-08-19T15:36:26.179Z,5.32
2022-08-19T15:38:53.207Z,5.82
2022-08-19T15:41:25.454Z,5.25
2022-08-19T15:43:56.068Z,5.45
2022-08-19T15:46:28.200Z,4.93
2022-08-19T15:48:56.146Z,4.78
2022-08-19T15:51:26.841Z,5.68
2022-08-19T15:53:54.109Z,4.78
2022-08-19T15:56:22.692Z,9.40
2022-08-19T15:59:10.805Z,4.80
2022-08-19T16:01:56.147Z,4.15
2022-08-19T16:04:41.370Z,4.47
2022-08-19T16:07:08.451Z,4.47
2022-08-19T16:09:36.198Z,4.05
2022-08-19T16:12:05.037Z,3.78
2022-08-19T16:14:33.694Z,3.60
2022-08-19T16:17:00.305Z,3.63
2022-08-19T16:19:27.357Z,3.17
2022-08-19T16:21:55.944Z,3.22
2022-08-19T16:24:24.775Z,2.47
2022-08-19T16:26:51.432Z,2.60
2022-08-19T16:29:27.656Z,3.03
2022-08-19T16:32:02.855Z,2.40
2022-08-19T16:34:30.845Z,2.70
2022-08-19T16:36:57.299Z,3.72
2022-08-19T16:39:23.969Z,3.22
2022-08-19T16:41:50.926Z,5.93
2022-08-19T16:44:20.737Z,9.45
2022-08-19T16:46:57.245Z,9.70
2022-08-19T16:49:52.965Z,7.22
2022-08-19T16:52:14.745Z,2.90
2022-08-19T16:54:41.977Z,2.30
2022-08-19T16:57:11.835Z,3.10
2022-08-19T16:59:44.118Z,1.63
2022-08-19T17:02:19.377Z,7.97
2022-08-19T17:04:58.645Z,9.32
2022-08-19T17:07:33.470Z,3.72
2022-08-19T17:10:01.256Z,5.13
2022-08-19T17:12:31.647Z,1.63
2022-08-19T17:15:00.650Z,6.85
2022-08-19T17:17:29.322Z,1.90
2022-08-19T17:19:56.706Z,3.97
2022-08-19T17:22:23.245Z,1.80
2022-08-19T17:24:49.780Z,10.35
2022-08-19T17:27:16.303Z,12.32
2022-08-19T17:29:46.773Z,15.73
2022-08-19T17:32:14.446Z,4.05
2022-08-19T17:34:41.017Z,2.92
2022-08-19T17:37:07.494Z,4.80
2022-08-19T17:39:39.591Z,5.22
2022-08-19T17:42:07.294Z,3.75
2022-08-19T17:44:36.526Z,2.17
2022-08-19T17:47:04.273Z,1.52
2022-08-19T17:49:30.876Z,2.03
2022-08-19T17:52:00.127Z,15.73
2022-08-19T17:54:33.247Z,5.03
2022-08-19T17:57:00.327Z,4.60
2022-08-19T17:59:30.139Z,14.73
2022-08-19T18:01:57.517Z,5.40
2022-08-19T18:04:25.517Z,15.77
2022-08-19T18:06:54.693Z,7.85
2022-08-19T18:09:26.449Z,33.92
2022-08-19T18:11:55.310Z,25.70
2022-08-19T18:14:32.843Z,32.78
2022-08-19T18:17:09.011Z,9.23
2022-08-19T18:19:42.688Z,3.67
2022-08-19T18:22:13.046Z,2.60
2022-08-19T18:24:41.609Z,3.55
2022-08-19T18:27:08.329Z,1.85
2022-08-19T18:29:36.879Z,1.60
2022-08-19T18:32:03.624Z,1.40
2022-08-19T18:34:30.289Z,3.13
2022-08-19T18:36:56.780Z,3.35
2022-08-19T18:39:44.272Z,1.70
2022-08-19T18:42:34.823Z,1.75
2022-08-19T18:45:20.039Z,1.10
2022-08-19T18:48:04.891Z,2.58
2022-08-19T18:50:31.484Z,3.78
2022-08-19T18:52:57.997Z,1.90
2022-08-19T18:55:27.286Z,1.45
2022-08-19T18:57:54.384Z,1.45
2022-08-19T19:00:21.262Z,1.00
2022-08-19T19:02:47.716Z,1.40
2022-08-19T19:05:15.065Z,4.00
2022-08-19T19:07:41.860Z,1.88
2022-08-19T19:10:09.112Z,1.52
2022-08-19T19:12:36.895Z,1.92
2022-08-19T19:15:06.020Z,5.18
2022-08-19T19:17:32.759Z,6.82
2022-08-19T19:19:59.525Z,2.85
2022-08-19T19:22:26.412Z,1.80
2022-08-19T19:24:54.414Z,1.70
2022-08-19T19:27:21.822Z,24.20
2022-08-19T19:29:52.452Z,6.97
2022-08-19T19:32:23.240Z,3.40
2022-08-19T19:34:49.993Z,2.40
2022-08-19T19:37:17.206Z,1.23
2022-08-19T19:39:46.457Z,3.08
2022-08-19T19:42:19.876Z,1.50
2022-08-19T19:44:50.153Z,4.03
2022-08-19T19:47:18.826Z,13.38
2022-08-19T19:50:13.891Z,11.57
2022-08-19T19:52:38.837Z,6.95
2022-08-19T19:55:05.854Z,3.08
2022-08-19T19:57:32.349Z,1.98
2022-08-19T19:59:59.343Z,1.83
2022-08-19T20:02:25.835Z,1.35
2022-08-19T20:04:52.870Z,1.90
2022-08-19T20:07:39.477Z,2.35
2022-08-19T20:10:06.226Z,2.03
2022-08-19T20:12:32.672Z,3.97
2022-08-19T20:14:59.146Z,9.68
2022-08-19T20:17:25.828Z,11.15
2022-08-19T20:19:53.444Z,6.05
2022-08-19T20:22:19.953Z,2.60
2022-08-19T20:24:46.442Z,3.70
2022-08-19T20:27:12.922Z,2.50
2022-08-19T20:29:40.432Z,3.20
2022-08-19T20:32:09.583Z,2.10
2022-08-19T20:34:37.149Z,2.80
2022-08-19T20:37:03.811Z,3.47
2022-08-19T20:39:30.437Z,3.20
2022-08-19T20:41:57.200Z,7.57
2022-08-19T20:44:25.290Z,21.38
2022-08-19T20:46:54.735Z,26.45
2022-08-19T20:49:22.984Z,38.58
2022-08-19T20:51:54.522Z,14.98
2022-08-19T20:54:21.330Z,19.42
2022-08-19T20:56:47.771Z,10.43
2022-08-19T20:59:14.459Z,7.28
2022-08-19T21:01:40.922Z,6.82
2022-08-19T21:04:07.419Z,5.60
2022-08-19T21:06:34.065Z,4.68
2022-08-19T21:09:00.644Z,3.78
2022-08-19T21:11:27.109Z,39.67
2022-08-19T21:13:53.784Z,51.03
2022-08-19T21:16:20.272Z,28.45
2022-08-19T21:18:46.719Z,15.45
2022-08-19T21:21:13.194Z,62.90
2022-08-19T21:23:39.656Z,65.78
2022-08-19T21:26:06.130Z,26.92
2022-08-19T21:28:35.970Z,17.73
2022-08-19T21:31:05.256Z,9.05
2022-08-19T21:33:32.828Z,9.45
2022-08-19T21:36:00.055Z,4.07
2022-08-19T21:38:26.780Z,3.35
2022-08-19T21:40:53.308Z,1.50
2022-08-19T21:43:19.938Z,1.88
2022-08-19T21:45:47.467Z,2.03
2022-08-19T21:48:15.082Z,1.67
2022-08-19T21:50:42.852Z,1.60
2022-08-19T21:53:17.304Z,1.20
2022-08-19T21:55:46.076Z,1.42
2022-08-19T21:58:19.590Z,1.67
2022-08-19T22:00:54.974Z,1.77
2022-08-19T22:03:21.997Z,1.65
2022-08-19T22:05:48.534Z,1.65
2022-08-19T22:08:15.236Z,1.95
2022-08-19T22:10:41.680Z,1.45
2022-08-19T22:13:09.412Z,2.38
2022-08-19T22:15:35.911Z,1.63
2022-08-19T22:18:02.677Z,1.52
2022-08-19T22:20:30.989Z,1.73
2022-08-19T22:23:01.293Z,1.52
2022-08-19T22:25:33.403Z,1.45
2022-08-19T22:28:04.930Z,1.70
2022-08-19T22:30:33.411Z,1.73
2022-08-19T22:33:03.533Z,1.60
2022-08-19T22:35:32.987Z,1.70
2022-08-19T22:38:00.066Z,1.95
2022-08-19T22:40:28.443Z,2.33
2022-08-19T22:43:17.096Z,1.85
2022-08-19T22:45:44.896Z,1.55
2022-08-19T22:48:14.100Z,1.48
2022-08-19T22:50:42.432Z,1.73
2022-08-19T22:53:10.113Z,1.33
2022-08-19T22:55:38.119Z,1.80
2022-08-19T22:58:05.373Z,1.88
2022-08-19T23:00:32.824Z,1.63
2022-08-19T23:02:59.612Z,1.50
2022-08-19T23:05:28.287Z,1.90
2022-08-19T23:07:57.784Z,1.60
2022-08-19T23:10:27.176Z,1.70
2022-08-19T23:12:56.315Z,1.50
2022-08-19T23:15:25.873Z,1.55
2022-08-19T23:17:54.876Z,1.70
2022-08-19T23:20:24.545Z,1.92
2022-08-19T23:22:51.524Z,2.33
2022-08-19T23:25:20.789Z,2.20
2022-08-19T23:28:06.461Z,1.90
2022-08-19T23:30:36.065Z,1.80
2022-08-19T23:33:12.670Z,1.85
2022-08-19T23:35:40.930Z,2.03
2022-08-19T23:38:08.835Z,2.30
2022-08-19T23:40:36.545Z,2.35
2022-08-19T23:43:07.948Z,2.22
2022-08-19T23:45:38.271Z,1.98
2022-08-19T23:48:06.185Z,2.45
2022-08-19T23:50:33.068Z,2.25
2022-08-19T23:53:00.758Z,3.13
2022-08-19T23:55:32.566Z,2.95
2022-08-19T23:57:59.594Z,2.38
